createdAt,value
2023-02-22T00:02:29.057Z,14.30
2023-02-22T00:05:20.101Z,12.80
2023-02-22T00:08:10.102Z,12.73
2023-02-22T00:10:57.682Z,18.63
2023-02-22T00:13:45.451Z,12.65
2023-02-22T00:16:32.573Z,16.73
2023-02-22T00:19:20.232Z,12.60
2023-02-22T00:22:08.827Z,20.48
2023-02-22T00:24:57.758Z,21.83
2023-02-22T00:27:46.081Z,17.27
2023-02-22T00:30:34.720Z,20.95
2023-02-22T00:33:22.077Z,19.48
2023-02-22T00:36:11.228Z,13.90
2023-02-22T00:38:59.679Z,17.90
2023-02-22T00:41:46.929Z,19.27
2023-02-22T00:44:34.200Z,13.27
2023-02-22T00:47:21.209Z,20.15
2023-02-22T00:50:10.087Z,13.80
2023-02-22T00:52:57.982Z,15.27
2023-02-22T00:55:46.757Z,12.70
2023-02-22T00:58:33.934Z,18.70
2023-02-22T01:01:22.339Z,19.00
2023-02-22T01:04:10.607Z,14.45
2023-02-22T01:07:00.570Z,15.77
2023-02-22T01:09:48.628Z,15.00
2023-02-22T01:12:38.790Z,22.58
2023-02-22T01:15:28.947Z,14.95
2023-02-22T01:18:17.307Z,14.45
2023-02-22T01:21:06.137Z,9.50
2023-02-22T01:23:55.046Z,14.30
2023-02-22T01:26:42.243Z,18.60
2023-02-22T01:29:30.538Z,15.00
2023-02-22T01:32:17.706Z,15.00
2023-02-22T01:35:08.512Z,12.90
2023-02-22T01:37:56.007Z,19.83
2023-02-22T01:40:44.918Z,18.75
2023-02-22T01:43:33.755Z,15.52
2023-02-22T01:46:24.528Z,17.95
2023-02-22T01:49:15.294Z,18.77
2023-02-22T01:52:08.808Z,17.63
2023-02-22T01:54:59.349Z,15.45
2023-02-22T01:57:48.986Z,16.23
2023-02-22T02:00:37.230Z,12.25
2023-02-22T02:03:28.647Z,15.35
2023-02-22T02:06:16.796Z,13.40
2023-02-22T02:09:11.859Z,18.52
2023-02-22T02:12:02.659Z,15.73
2023-02-22T02:14:50.572Z,17.50
2023-02-22T02:17:40.686Z,16.35
2023-02-22T02:20:37.723Z,22.92
2023-02-22T02:23:59.754Z,14.00
2023-02-22T02:27:17.797Z,15.10
2023-02-22T02:30:45.084Z,15.80
2023-02-22T02:33:35.853Z,16.85
2023-02-22T02:36:31.592Z,14.70
2023-02-22T02:39:28.514Z,11.80
2023-02-22T02:42:22.199Z,15.13
2023-02-22T02:45:12.716Z,13.68
2023-02-22T02:48:02.440Z,20.27
2023-02-22T02:50:53.720Z,13.63
2023-02-22T02:53:45.770Z,17.67
2023-02-22T02:56:32.848Z,17.88
2023-02-22T02:59:28.084Z,15.00
2023-02-22T03:02:29.071Z,16.95
2023-02-22T03:05:36.050Z,14.82
2023-02-22T03:08:32.390Z,19.48
2023-02-22T03:11:22.691Z,20.98
2023-02-22T03:14:17.804Z,24.08
2023-02-22T03:17:13.119Z,19.45
2023-02-22T03:20:09.645Z,19.83
2023-02-22T03:23:02.380Z,21.48
2023-02-22T03:25:54.777Z,21.13
2023-02-22T03:28:45.135Z,20.05
2023-02-22T03:31:38.020Z,17.25
2023-02-22T03:34:30.316Z,18.20
2023-02-22T03:37:22.001Z,20.10
2023-02-22T03:40:15.086Z,17.77
2023-02-22T03:43:10.026Z,23.77
2023-02-22T03:46:34.725Z,22.45
2023-02-22T03:49:29.886Z,20.88
2023-02-22T03:52:17.855Z,20.80
2023-02-22T03:55:11.222Z,20.60
2023-02-22T03:58:01.011Z,15.45
2023-02-22T04:00:53.554Z,18.45
2023-02-22T04:03:42.268Z,20.00
2023-02-22T04:10:09.860Z,22.73
2023-02-22T04:12:58.943Z,17.92
2023-02-22T04:15:46.752Z,16.35
2023-02-22T04:18:36.134Z,15.95
2023-02-22T04:21:24.252Z,16.83
2023-02-22T04:24:12.576Z,14.20
2023-02-22T04:27:02.364Z,16.55
2023-02-22T04:29:49.980Z,16.33
2023-02-22T04:32:38.031Z,19.42
2023-02-22T04:35:27.590Z,19.98
2023-02-22T04:38:15.429Z,19.42
2023-02-22T04:41:02.976Z,24.90
2023-02-22T04:43:50.569Z,20.35
2023-02-22T04:46:42.251Z,18.17
2023-02-22T04:49:30.388Z,22.02
2023-02-22T04:52:19.261Z,29.42
2023-02-22T04:55:07.870Z,28.35
2023-02-22T04:57:57.533Z,28.83
2023-02-22T05:00:45.149Z,28.00
2023-02-22T05:03:32.900Z,29.30
2023-02-22T05:06:20.360Z,24.88
2023-02-22T05:09:09.569Z,29.98
2023-02-22T05:11:57.362Z,29.00
2023-02-22T05:14:44.606Z,28.20
2023-02-22T05:17:33.661Z,26.77
2023-02-22T05:20:27.863Z,33.95
2023-02-22T05:23:15.570Z,30.33
2023-02-22T05:26:06.579Z,21.40
2023-02-22T05:28:54.391Z,24.42
2023-02-22T05:31:42.342Z,21.10
2023-02-22T05:34:30.933Z,26.67
2023-02-22T05:37:18.600Z,20.90
2023-02-22T05:40:07.728Z,24.27
2023-02-22T05:42:57.837Z,21.33
2023-02-22T05:45:45.409Z,18.85
2023-02-22T05:48:32.865Z,25.10
2023-02-22T05:51:20.616Z,24.30
2023-02-22T05:54:08.241Z,17.38
2023-02-22T05:56:55.880Z,21.65
2023-02-22T05:59:44.713Z,18.67
2023-02-22T06:02:32.385Z,25.67
2023-02-22T06:05:19.946Z,20.85
2023-02-22T06:08:08.393Z,27.30
2023-02-22T06:10:55.711Z,25.88
2023-02-22T06:13:43.242Z,29.45
2023-02-22T06:16:32.805Z,21.83
2023-02-22T06:19:20.456Z,23.77
2023-02-22T06:22:08.609Z,27.30
2023-02-22T06:24:56.007Z,25.60
2023-02-22T06:27:43.454Z,23.92
2023-02-22T06:30:31.754Z,27.15
2023-02-22T06:33:20.660Z,24.50
2023-02-22T06:36:09.287Z,21.48
2023-02-22T06:38:58.025Z,25.38
2023-02-22T06:41:46.279Z,19.45
2023-02-22T06:44:33.928Z,25.58
2023-02-22T06:47:21.251Z,21.73
2023-02-22T06:50:20.358Z,23.88
2023-02-22T06:53:08.164Z,36.97
2023-02-22T06:55:56.209Z,51.40
2023-02-22T06:58:43.750Z,49.58
2023-02-22T07:01:31.169Z,50.72
2023-02-22T07:04:18.956Z,45.05
2023-02-22T07:07:07.788Z,50.35
2023-02-22T07:09:55.418Z,48.00
2023-02-22T07:12:42.797Z,47.95
2023-02-22T07:15:32.728Z,31.63
2023-02-22T07:18:20.526Z,36.38
2023-02-22T07:21:08.392Z,45.85
2023-02-22T07:24:00.089Z,46.28
2023-02-22T07:26:47.415Z,43.22
2023-02-22T07:29:36.140Z,38.95
2023-02-22T07:32:24.293Z,34.08
2023-02-22T07:35:16.917Z,33.63
2023-02-22T07:38:06.141Z,38.00
2023-02-22T07:40:55.021Z,34.53
2023-02-22T07:43:42.394Z,39.05
2023-02-22T07:46:29.891Z,38.25
2023-02-22T07:49:17.702Z,29.98
2023-02-22T07:52:06.404Z,36.17
2023-02-22T07:54:53.717Z,26.38
2023-02-22T07:57:42.586Z,40.15
2023-02-22T08:00:32.040Z,30.77
2023-02-22T08:03:21.571Z,33.55
2023-02-22T08:06:09.614Z,30.20
2023-02-22T08:08:57.292Z,30.45
2023-02-22T08:11:44.938Z,40.30
2023-02-22T08:14:33.700Z,35.92
2023-02-22T08:17:21.216Z,36.28
2023-02-22T08:20:09.755Z,31.52
2023-02-22T08:22:58.929Z,22.10
2023-02-22T08:25:46.661Z,29.63
2023-02-22T08:28:34.202Z,44.20
2023-02-22T08:31:22.923Z,25.20
2023-02-22T08:34:10.597Z,18.50
2023-02-22T08:36:58.084Z,15.00
2023-02-22T08:39:45.796Z,16.27
2023-02-22T08:42:33.354Z,16.25
2023-02-22T08:45:21.028Z,18.05
2023-02-22T08:48:10.113Z,15.13
2023-02-22T08:50:58.149Z,22.00
2023-02-22T08:53:45.809Z,22.60
2023-02-22T08:56:33.387Z,16.95
2023-02-22T08:59:20.997Z,14.07
2023-02-22T09:02:16.292Z,21.98
2023-02-22T09:05:05.840Z,26.77
2023-02-22T09:07:53.294Z,23.70
2023-02-22T09:10:41.078Z,21.30
2023-02-22T09:13:28.428Z,22.42
2023-02-22T09:16:15.985Z,24.67
2023-02-22T09:19:03.300Z,20.85
2023-02-22T09:21:55.601Z,19.75
2023-02-22T09:24:43.652Z,17.55
2023-02-22T09:27:31.241Z,17.92
2023-02-22T09:30:23.983Z,21.67
2023-02-22T09:33:15.308Z,17.55
2023-02-22T09:36:03.112Z,22.60
2023-02-22T09:38:52.450Z,19.98
2023-02-22T09:41:50.076Z,13.30
2023-02-22T09:44:42.191Z,14.90
2023-02-22T09:47:40.343Z,18.98
2023-02-22T09:50:35.726Z,11.43
2023-02-22T09:53:29.968Z,18.77
2023-02-22T09:56:21.563Z,14.63
2023-02-22T09:59:13.659Z,16.02
2023-02-22T10:02:07.173Z,17.50
2023-02-22T10:05:01.612Z,10.40
2023-02-22T10:07:56.173Z,7.45
2023-02-22T10:10:46.461Z,7.10
2023-02-22T10:13:48.722Z,7.60
2023-02-22T10:16:44.283Z,14.23
2023-02-22T10:19:41.137Z,8.70
2023-02-22T10:25:26.970Z,9.73
2023-02-22T10:28:19.267Z,11.27
2023-02-22T10:31:10.419Z,8.43
2023-02-22T10:34:02.637Z,9.88
2023-02-22T10:36:54.420Z,11.00
2023-02-22T10:39:44.391Z,9.65
2023-02-22T10:42:32.216Z,6.60
2023-02-22T10:45:25.661Z,8.68
2023-02-22T10:48:18.549Z,8.63
2023-02-22T10:51:08.639Z,8.30
2023-02-22T10:54:08.827Z,8.60
2023-02-22T10:56:57.299Z,8.85
2023-02-22T10:59:45.344Z,8.02
2023-02-22T11:02:35.680Z,8.18
2023-02-22T11:05:37.802Z,9.85
2023-02-22T11:08:28.997Z,8.18
2023-02-22T11:11:25.418Z,8.77
2023-02-22T11:14:14.116Z,13.02
2023-02-22T11:17:07.263Z,8.75
2023-02-22T11:19:55.021Z,10.18
2023-02-22T11:22:44.210Z,8.52
2023-02-22T11:25:34.977Z,30.33
2023-02-22T11:28:32.916Z,22.77
2023-02-22T11:31:25.546Z,11.57
2023-02-22T11:34:36.529Z,9.77
2023-02-22T11:37:31.782Z,22.58
2023-02-22T11:40:23.488Z,20.05
2023-02-22T11:43:16.160Z,15.45
2023-02-22T11:46:06.274Z,9.70
2023-02-22T11:49:04.628Z,19.27
2023-02-22T11:52:04.438Z,12.70
2023-02-22T11:55:04.539Z,9.40
2023-02-22T11:58:05.914Z,14.40
2023-02-22T12:01:00.051Z,7.22
2023-02-22T12:04:40.685Z,12.43
2023-02-22T12:07:37.219Z,14.32
2023-02-22T12:13:40.084Z,10.88
2023-02-22T12:16:38.551Z,7.53
2023-02-22T12:19:36.133Z,12.48
2023-02-22T12:22:29.582Z,12.70
2023-02-22T12:25:21.707Z,10.05
2023-02-22T12:28:24.580Z,12.35
2023-02-22T12:31:23.121Z,10.48
2023-02-22T12:34:19.996Z,11.85
2023-02-22T12:37:16.166Z,13.32
2023-02-22T12:40:09.865Z,9.23
2023-02-22T12:43:02.305Z,10.85
2023-02-22T12:45:53.502Z,12.10
2023-02-22T12:48:48.919Z,11.38
2023-02-22T12:51:44.129Z,8.88
2023-02-22T12:54:44.174Z,8.27
2023-02-22T12:57:42.444Z,7.50
2023-02-22T13:00:36.319Z,9.27
2023-02-22T13:03:35.986Z,10.55
2023-02-22T13:06:39.794Z,9.85
2023-02-22T13:09:51.335Z,11.20
2023-02-22T13:12:52.204Z,9.23
2023-02-22T13:15:46.999Z,8.43
2023-02-22T13:18:39.178Z,9.35
2023-02-22T13:21:43.455Z,12.27
2023-02-22T13:24:40.753Z,9.63
2023-02-22T13:27:36.368Z,135.75
2023-02-22T13:30:33.762Z,13.38
2023-02-22T13:33:32.888Z,10.55
2023-02-22T13:36:36.848Z,11.52
2023-02-22T13:39:54.672Z,10.38
2023-02-22T13:46:21.656Z,5.40
2023-02-22T13:49:48.926Z,9.25
2023-02-22T13:52:41.119Z,12.75
2023-02-22T13:55:34.566Z,10.02
2023-02-22T13:58:22.373Z,9.10
2023-02-22T14:01:45.715Z,12.85
2023-02-22T14:04:44.522Z,8.98
2023-02-22T14:07:58.068Z,14.23
2023-02-22T14:10:50.792Z,12.20
2023-02-22T14:14:11.750Z,10.02
2023-02-22T14:17:23.245Z,12.40
2023-02-22T14:20:30.229Z,9.48
2023-02-22T14:23:37.289Z,8.63
2023-02-22T14:26:29.099Z,8.48
2023-02-22T14:29:18.854Z,9.88
2023-02-22T14:32:10.728Z,7.38
2023-02-22T14:35:01.481Z,19.27
2023-02-22T14:37:54.278Z,12.30
2023-02-22T14:40:45.900Z,20.48
2023-02-22T14:43:38.770Z,12.27
2023-02-22T14:46:30.435Z,12.52
2023-02-22T14:49:23.386Z,6.68
2023-02-22T14:52:22.304Z,10.20
2023-02-22T14:55:22.425Z,14.13
2023-02-22T14:58:18.719Z,10.45
2023-02-22T15:01:33.921Z,11.35
2023-02-22T15:04:26.646Z,8.20
2023-02-22T15:07:27.293Z,9.00
2023-02-22T15:10:22.462Z,7.63
2023-02-22T15:13:19.881Z,10.70
2023-02-22T15:16:08.241Z,8.90
2023-02-22T15:18:57.192Z,13.05
2023-02-22T15:21:47.419Z,11.88
2023-02-22T15:24:37.477Z,7.53
2023-02-22T15:27:26.251Z,10.52
2023-02-22T15:30:26.592Z,9.85
2023-02-22T15:33:17.898Z,9.95
2023-02-22T15:36:05.937Z,8.85
2023-02-22T15:38:55.864Z,12.65
2023-02-22T15:41:43.336Z,8.57
2023-02-22T15:44:35.288Z,10.15
2023-02-22T15:47:27.410Z,15.00
2023-02-22T15:50:21.538Z,18.65
2023-02-22T15:53:24.619Z,14.77
2023-02-22T15:56:16.446Z,10.90
2023-02-22T15:59:10.348Z,15.73
2023-02-22T16:02:00.376Z,14.35
2023-02-22T16:04:59.269Z,15.85
2023-02-22T16:07:50.556Z,10.93
2023-02-22T16:10:38.430Z,16.52
2023-02-22T16:13:32.664Z,13.98
2023-02-22T16:16:29.084Z,12.95
2023-02-22T16:19:32.918Z,12.77
2023-02-22T16:22:34.749Z,19.83
2023-02-22T16:25:32.898Z,14.98
2023-02-22T16:28:30.817Z,18.10
2023-02-22T16:31:21.120Z,20.20
2023-02-22T16:34:10.996Z,21.60
2023-02-22T16:36:58.916Z,16.08
2023-02-22T16:39:51.779Z,13.93
2023-02-22T16:42:39.217Z,19.25
2023-02-22T16:45:26.896Z,16.88
2023-02-22T16:48:18.116Z,24.17
2023-02-22T16:51:10.817Z,18.52
2023-02-22T16:53:58.891Z,20.80
2023-02-22T16:56:47.960Z,20.90
2023-02-22T16:59:39.792Z,23.92
2023-02-22T17:02:27.815Z,20.92
2023-02-22T17:05:17.624Z,22.83
2023-02-22T17:08:05.505Z,19.55
2023-02-22T17:10:56.725Z,21.08
2023-02-22T17:13:45.837Z,16.20
2023-02-22T17:16:33.181Z,21.88
2023-02-22T17:19:22.648Z,23.75
2023-02-22T17:22:18.476Z,25.50
2023-02-22T17:25:23.348Z,25.37
2023-02-22T17:28:11.096Z,22.42
2023-02-22T17:31:02.308Z,26.35
2023-02-22T17:33:51.480Z,31.77
2023-02-22T17:36:39.787Z,26.23
2023-02-22T17:39:27.925Z,24.25
2023-02-22T17:42:15.640Z,25.35
2023-02-22T17:45:03.024Z,26.95
2023-02-22T17:47:52.595Z,26.85
2023-02-22T17:50:41.272Z,22.60
2023-02-22T17:53:29.051Z,26.30
2023-02-22T17:56:19.930Z,29.58
2023-02-22T17:59:09.208Z,21.55
2023-02-22T18:01:56.601Z,28.30
2023-02-22T18:04:46.981Z,21.38
2023-02-22T18:07:34.484Z,23.08
2023-02-22T18:10:22.338Z,23.77
2023-02-22T18:13:10.079Z,28.10
2023-02-22T18:16:00.236Z,30.08
2023-02-22T18:18:49.515Z,23.48
2023-02-22T18:21:38.933Z,21.10
2023-02-22T18:24:26.496Z,23.10
2023-02-22T18:27:14.928Z,22.40
2023-02-22T18:30:02.280Z,24.35
2023-02-22T18:32:50.043Z,28.15
2023-02-22T18:35:37.527Z,21.88
2023-02-22T18:38:26.701Z,25.58
2023-02-22T18:41:16.486Z,20.42
2023-02-22T18:44:04.850Z,23.52
2023-02-22T18:46:54.058Z,22.58
2023-02-22T18:49:42.030Z,18.88
2023-02-22T18:52:31.070Z,21.70
2023-02-22T18:55:22.116Z,29.75
2023-02-22T18:58:11.147Z,25.90
2023-02-22T19:01:00.108Z,25.25
2023-02-22T19:03:48.411Z,19.33
2023-02-22T19:06:36.161Z,24.92
2023-02-22T19:09:23.468Z,24.85
2023-02-22T19:12:12.620Z,21.65
2023-02-22T19:15:00.395Z,24.45
2023-02-22T19:17:47.717Z,27.10
2023-02-22T19:20:35.125Z,22.42
2023-02-22T19:23:22.790Z,22.92
2023-02-22T19:26:10.172Z,31.52
2023-02-22T19:29:04.752Z,29.98
2023-02-22T19:31:53.783Z,17.80
2023-02-22T19:34:44.019Z,20.95
2023-02-22T19:37:34.163Z,23.55
2023-02-22T19:40:23.271Z,20.55
2023-02-22T19:43:10.688Z,28.42
2023-02-22T19:45:59.612Z,21.08
2023-02-22T19:48:47.289Z,23.48
2023-02-22T19:51:42.061Z,28.73
2023-02-22T19:54:29.606Z,22.23
2023-02-22T19:57:17.199Z,22.55
2023-02-22T20:00:10.919Z,20.20
2023-02-22T20:03:05.851Z,24.60
2023-02-22T20:05:57.653Z,24.02
2023-02-22T20:08:45.018Z,26.77
2023-02-22T20:11:32.733Z,23.17
2023-02-22T20:14:23.443Z,22.25
2023-02-22T20:17:11.240Z,34.08
2023-02-22T20:20:00.155Z,29.15
2023-02-22T20:22:47.909Z,24.95
2023-02-22T20:25:35.578Z,31.23
2023-02-22T20:28:23.170Z,26.98
2023-02-22T20:31:13.754Z,26.73
2023-02-22T20:34:02.662Z,31.60
2023-02-22T20:36:51.698Z,22.63
2023-02-22T20:39:39.569Z,32.40
2023-02-22T20:42:27.089Z,33.08
2023-02-22T20:45:16.251Z,27.98
2023-02-22T20:48:03.837Z,35.85
2023-02-22T20:50:51.259Z,31.60
2023-02-22T20:53:41.868Z,30.38
2023-02-22T20:56:31.804Z,30.73
2023-02-22T20:59:20.985Z,37.67
2023-02-22T21:02:08.700Z,35.42
2023-02-22T21:04:56.104Z,33.00
2023-02-22T21:07:43.600Z,35.45
2023-02-22T21:10:41.397Z,33.13
2023-02-22T21:13:29.283Z,38.53
2023-02-22T21:16:19.489Z,32.00
2023-02-22T21:19:08.547Z,41.72
2023-02-22T21:21:57.234Z,32.58
2023-02-22T21:24:44.592Z,31.13
2023-02-22T21:27:33.494Z,33.25
2023-02-22T21:30:21.523Z,39.97
2023-02-22T21:33:09.260Z,36.13
2023-02-22T21:35:56.732Z,37.45
2023-02-22T21:38:45.454Z,35.22
2023-02-22T21:41:34.070Z,35.42
2023-02-22T21:44:23.375Z,33.15
2023-02-22T21:47:10.633Z,36.50
2023-02-22T21:49:58.115Z,38.60
2023-02-22T21:52:47.089Z,40.03
2023-02-22T21:55:34.935Z,38.17
2023-02-22T21:58:22.676Z,38.92
2023-02-22T22:01:17.287Z,39.15
2023-02-22T22:04:06.551Z,38.47
2023-02-22T22:06:56.620Z,37.88
2023-02-22T22:09:44.669Z,36.65
2023-02-22T22:12:39.176Z,35.65
2023-02-22T22:15:27.955Z,31.17
2023-02-22T22:18:17.193Z,39.65
2023-02-22T22:21:11.327Z,38.55
2023-02-22T22:23:58.778Z,35.42
2023-02-22T22:26:46.076Z,41.08
2023-02-22T22:29:34.488Z,36.50
2023-02-22T22:32:22.249Z,39.97
2023-02-22T22:35:14.675Z,42.10
2023-02-22T22:38:02.947Z,35.30
2023-02-22T22:40:51.141Z,41.38
2023-02-22T22:43:38.908Z,36.60
2023-02-22T22:46:26.384Z,36.47
2023-02-22T22:49:14.633Z,38.00
2023-02-22T22:52:03.510Z,41.40
2023-02-22T22:54:51.352Z,33.63
2023-02-22T22:57:40.774Z,39.28
2023-02-22T23:00:35.989Z,39.38
2023-02-22T23:03:23.923Z,38.90
2023-02-22T23:06:13.317Z,39.05
2023-02-22T23:09:10.408Z,37.22
2023-02-22T23:12:08.639Z,31.55
2023-02-22T23:14:58.507Z,40.95
2023-02-22T23:17:45.811Z,33.80
2023-02-22T23:20:38.605Z,35.78
2023-02-22T23:23:27.761Z,36.80
2023-02-22T23:26:18.315Z,41.30
2023-02-22T23:29:08.771Z,33.83
2023-02-22T23:31:56.333Z,37.47
2023-02-22T23:34:44.217Z,35.55
2023-02-22T23:37:35.436Z,39.83
2023-02-22T23:40:25.964Z,36.15
2023-02-22T23:43:16.952Z,36.30
2023-02-22T23:46:10.788Z,33.03
2023-02-22T23:49:01.752Z,36.88
2023-02-22T23:51:50.743Z,34.17
2023-02-22T23:54:43.877Z,34.38
2023-02-22T23:57:32.910Z,36.85
